createdAt,value
2022-08-14T00:06:40.726Z,2.50
2022-08-14T00:16:45.021Z,2.67
2022-08-14T00:26:46.624Z,2.63
2022-08-14T00:36:53.975Z,3.00
2022-08-14T00:46:57.629Z,2.80
2022-08-14T00:57:00.323Z,3.00
2022-08-14T01:07:04.992Z,3.15
2022-08-14T01:17:09.575Z,3.10
2022-08-14T01:27:13.177Z,2.53
2022-08-14T01:37:16.477Z,2.88
2022-08-14T01:47:21.599Z,2.95
2022-08-14T01:57:24.018Z,3.45
2022-08-14T02:07:34.503Z,3.50
2022-08-14T02:17:46.625Z,3.42
2022-08-14T02:28:23.366Z,3.67
2022-08-14T02:38:29.523Z,4.10
2022-08-14T02:49:05.568Z,4.00
2022-08-14T03:09:01.851Z,4.63
2022-08-14T03:19:03.193Z,4.35
2022-08-14T03:29:05.562Z,5.00
2022-08-14T03:39:22.728Z,5.75
2022-08-14T03:49:29.227Z,5.43
2022-08-14T03:59:31.532Z,5.85
2022-08-14T04:09:34.158Z,6.30
2022-08-14T04:19:36.426Z,6.82
2022-08-14T04:29:38.383Z,7.65
2022-08-14T04:39:58.841Z,7.28
2022-08-14T04:50:00.351Z,7.88
2022-08-14T05:00:06.313Z,7.50
2022-08-14T05:10:13.178Z,7.30
2022-08-14T05:21:04.782Z,8.07
2022-08-14T05:30:39.073Z,7.75
2022-08-14T05:40:40.411Z,7.38
2022-08-14T05:50:42.176Z,7.30
2022-08-14T06:00:43.496Z,7.95
2022-08-14T06:10:45.083Z,7.95
2022-08-14T06:20:46.455Z,7.95
2022-08-14T06:30:47.847Z,8.75
2022-08-14T06:40:49.315Z,8.02
2022-08-14T06:50:52.299Z,8.05
2022-08-14T07:01:12.490Z,8.10
2022-08-14T07:11:13.978Z,7.65
2022-08-14T07:21:16.135Z,7.60
2022-08-14T07:31:17.622Z,7.47
2022-08-14T07:41:19.478Z,7.07
2022-08-14T07:51:20.855Z,6.60
2022-08-14T08:01:23.549Z,6.68
2022-08-14T08:11:25.182Z,5.70
2022-08-14T08:21:33.162Z,5.57
2022-08-14T08:31:36.846Z,5.90
2022-08-14T08:41:38.220Z,5.50
2022-08-14T08:51:43.198Z,5.25
2022-08-14T09:01:45.035Z,5.50
2022-08-14T09:11:46.427Z,5.00
2022-08-14T09:21:49.523Z,4.97
2022-08-14T09:31:57.707Z,4.15
2022-08-14T09:42:20.101Z,3.53
2022-08-14T09:52:32.879Z,4.03
2022-08-14T10:02:35.654Z,3.60
2022-08-14T10:12:36.982Z,3.35
2022-08-14T10:23:13.646Z,3.03
2022-08-14T10:33:00.203Z,2.50
2022-08-14T10:43:02.739Z,2.63
2022-08-14T10:53:07.900Z,2.42
2022-08-14T11:03:11.050Z,2.45
2022-08-14T11:13:12.904Z,2.20
2022-08-14T11:23:16.954Z,2.40
2022-08-14T11:33:18.368Z,2.80
2022-08-14T11:43:22.713Z,2.20
2022-08-14T11:53:31.423Z,2.20
2022-08-14T12:03:46.514Z,2.20
2022-08-14T12:13:55.915Z,2.80
2022-08-14T12:23:57.600Z,2.40
2022-08-14T12:34:03.676Z,2.03
2022-08-14T12:44:15.997Z,2.40
2022-08-14T12:54:28.107Z,2.33
2022-08-14T13:04:31.403Z,2.20
2022-08-14T13:14:36.840Z,1.70
2022-08-14T13:24:38.685Z,2.13
2022-08-14T13:34:41.191Z,1.90
2022-08-14T13:44:43.189Z,1.90
2022-08-14T13:54:46.624Z,1.90
2022-08-14T14:04:56.338Z,2.05
2022-08-14T14:14:57.581Z,2.03
2022-08-14T14:25:06.182Z,1.95
2022-08-14T14:35:07.582Z,1.90
2022-08-14T14:45:08.986Z,1.83
2022-08-14T14:55:12.417Z,1.73
2022-08-14T15:05:15.330Z,1.80
2022-08-14T15:15:17.545Z,2.10
2022-08-14T15:25:18.961Z,2.58
2022-08-14T15:35:22.344Z,2.75
2022-08-14T15:45:23.984Z,2.15
2022-08-14T15:55:26.079Z,2.30
2022-08-14T16:05:27.618Z,2.50
2022-08-14T16:15:53.015Z,2.70
2022-08-14T16:25:56.049Z,2.17
2022-08-14T16:35:59.889Z,2.50
2022-08-14T16:46:02.166Z,2.20
2022-08-14T16:56:04.629Z,2.15
2022-08-14T17:06:25.799Z,2.13
2022-08-14T17:16:28.932Z,6.20
2022-08-14T17:26:32.283Z,7.88
2022-08-14T17:36:33.731Z,3.40
2022-08-14T17:46:36.225Z,2.83
2022-08-14T17:56:38.900Z,2.50
2022-08-14T18:06:58.497Z,3.45
2022-08-14T18:17:02.170Z,3.65
2022-08-14T18:27:09.026Z,2.80
2022-08-14T18:37:17.719Z,2.70
2022-08-14T18:47:20.359Z,2.10
2022-08-14T18:57:22.005Z,2.22
2022-08-14T19:07:24.421Z,2.35
2022-08-14T19:17:25.687Z,2.17
2022-08-14T19:27:37.591Z,2.30
2022-08-14T19:37:54.810Z,2.60
2022-08-14T19:47:57.856Z,2.25
2022-08-14T19:57:59.521Z,2.45
2022-08-14T20:10:58.425Z,2.28
2022-08-14T20:18:48.736Z,2.90
2022-08-14T20:28:51.281Z,2.83
2022-08-14T20:38:53.940Z,3.05
2022-08-14T20:48:56.657Z,2.70
2022-08-14T20:58:58.004Z,3.22
2022-08-14T21:08:59.366Z,3.10
2022-08-14T21:19:02.034Z,3.20
2022-08-14T21:29:03.663Z,3.00
2022-08-14T21:39:06.584Z,3.50
2022-08-14T21:49:09.588Z,3.95
2022-08-14T21:59:18.000Z,3.80
2022-08-14T22:09:21.720Z,4.07
2022-08-14T22:19:23.864Z,4.05
2022-08-14T22:29:44.946Z,3.90
2022-08-14T22:40:54.683Z,3.70
2022-08-14T22:50:31.671Z,3.88
2022-08-14T23:00:35.132Z,4.07
2022-08-14T23:10:37.957Z,3.30
2022-08-14T23:20:40.266Z,3.38
2022-08-14T23:30:42.755Z,3.10
2022-08-14T23:40:50.507Z,3.17
2022-08-14T23:50:52.438Z,3.20
